Home > Products > Valid Products > TAF

000
FTUS45 KTFX 282324 CCA
TAFBZN
TAF COR
KBZN 282324Z 2900/2924 33007KT P6SM VCSH FEW015 BKN025 OVC035
      TEMPO 2900/2904 3SM TSRA BKN025CB
     FM290400 VRB05KT 5SM SHRA OVC025
     FM291400 VRB05KT P6SM SCT050=



000
FTUS45 KTFX 282324 CCA
TAFBZN
TAF COR
KBZN 282324Z 2900/2924 33007KT P6SM VCSH FEW015 BKN025 OVC035
      TEMPO 2900/2904 3SM TSRA BKN025CB
     FM290400 VRB05KT 5SM SHRA OVC025
     FM291400 VRB05KT P6SM SCT050=



000
FTUS45 KTFX 282320
TAFGTF
TAF
KGTF 282320Z 2900/2924 35015KT P6SM VCFG OVC009
      TEMPO 2900/2904 1SM BR OVC002
     FM290400 36010KT P6SM VCFG OVC015
     FM291600 VRB05KT P6SM SCT015 BKN040=



000
FTUS45 KTFX 282320
TAFBZN
TAF
KBZN 282320Z 2900/2924 33007KT P6SM VCSH FEW015 BKN025 OVC035
      TEMPO 2900/2904 TSRA BKN025CB
     FM290400 VRB05KT 5SM SHRA OVC025
     FM291400 VRB05KT P6SM SCT050=



000
FTUS45 KTFX 282320
TAFLWT
TAF
KLWT 282320Z 2900/2924 32010KT P6SM -SHRA OVC035
      TEMPO 2900/2904 4SM SHRA OVC015
     FM290400 VRB05KT P6SM OVC025
     FM291000 12005KT 5SM BR OVC050
     FM291600 10010KT P6SM BKN250=



000
FTUS45 KTFX 282320
TAFHLN
TAF
KHLN 282320Z 2900/2924 33010KT P6SM VCSH OVC035
      TEMPO 2900/2904 -SHRA BKN025
     FM290400 33010KT P6SM BKN035
     FM291000 VRB05KT 5SM BR OVC050
     FM291400 08005KT P6SM SCT050=



000
FTUS45 KTFX 282320
TAFHVR
TAF
KHVR 282320Z 2900/2924 02015KT P6SM BKN025 OVC050
     FM290400 09010KT P6SM BKN050
     FM291900 11015KT P6SM BKN250=



000
FTUS45 KTFX 282320
TAFBZN
TAF
KBZN 282320Z 2900/2924 33007KT P6SM VCSH FEW015 BKN025 OVC035
      TEMPO 2900/2904 TSRA BKN025CB
     FM290400 VRB05KT 5SM SHRA OVC025
     FM291400 VRB05KT P6SM SCT050=



000
FTUS45 KTFX 282320
TAFHLN
TAF
KHLN 282320Z 2900/2924 33010KT P6SM VCSH OVC035
      TEMPO 2900/2904 -SHRA BKN025
     FM290400 33010KT P6SM BKN035
     FM291000 VRB05KT 5SM BR OVC050
     FM291400 08005KT P6SM SCT050=



000
FTUS45 KTFX 282320
TAFCTB
TAF
KCTB 282320Z 2900/2924 36015KT 6SM BR OVC009
     FM290500 36005KT P6SM OVC015
     FM291200 15010KT P6SM SCT015 BKN060=



000
FTUS45 KTFX 282320
TAFLWT
TAF
KLWT 282320Z 2900/2924 32010KT P6SM -SHRA OVC035
      TEMPO 2900/2904 4SM SHRA OVC015
     FM290400 VRB05KT P6SM OVC025
     FM291000 12005KT 5SM BR OVC050
     FM291600 10010KT P6SM BKN250=



000
FTUS45 KTFX 282320
TAFGTF
TAF
KGTF 282320Z 2900/2924 35015KT P6SM VCFG OVC009
      TEMPO 2900/2904 1SM BR OVC002
     FM290400 36010KT P6SM VCFG OVC015
     FM291600 VRB05KT P6SM SCT015 BKN040=



000
FTUS45 KTFX 282320
TAFCTB
TAF
KCTB 282320Z 2900/2924 36015KT 6SM BR OVC009
     FM290500 36005KT P6SM OVC015
     FM291200 15010KT P6SM SCT015 BKN060=



000
FTUS45 KTFX 282320
TAFHVR
TAF
KHVR 282320Z 2900/2924 02015KT P6SM BKN025 OVC050
     FM290400 09010KT P6SM BKN050
     FM291900 11015KT P6SM BKN250=



000
FTUS45 KTFX 281721
TAFHLN
TAF
KHLN 281721Z 2818/2918 33008KT P6SM -SHRA SCT015 OVC050
      TEMPO 2819/2823 5SM SHRA OVC025
     FM282300 33010KT P6SM VCSH OVC045
      TEMPO 2823/2903 -SHRA
     FM290300 33006KT P6SM BKN060
     FM291000 VRB04KT 5SM BR OVC025
     FM291400 VRB05KT P6SM SCT040=



000
FTUS45 KTFX 281721
TAFBZN
TAF
KBZN 281721Z 2818/2918 VRB04KT P6SM VCSH SCT015 OVC045
     FM281900 33005KT P6SM -SHRA SCT015 OVC045
      TEMPO 2819/2823 4SM SHRA OVC015
     FM282300 33007KT P6SM VCSH OVC045
      TEMPO 2823/2903 -SHRA BKN025
     FM291000 VRB05KT 5SM BR OVC015
     FM291400 VRB05KT P6SM SCT050=



000
FTUS45 KTFX 281721
TAFGTF
TAF
KGTF 281721Z 2818/2918 35010KT P6SM VCSH OVC045
      TEMPO 2819/2823 5SM SHRA OVC025
     FM290200 36008KT P6SM VCSH OVC025
     FM291000 VRB04KT P6SM OVC015
     FM291600 VRB05KT P6SM BKN040=



000
FTUS45 KTFX 281721
TAFHVR
TAF
KHVR 281721Z 2818/2918 36010KT P6SM OVC070
      TEMPO 2818/2820 -SHRA BKN040
     FM290200 04007KT P6SM BKN040
     FM291600 09010KT P6SM SKC=



000
FTUS45 KTFX 281721
TAFLWT
TAF
KLWT 281721Z 2818/2918 34010KT P6SM VCSH OVC045
     FM282000 34012KT P6SM -SHRA OVC035
      TEMPO 2820/2824 4SM TSRA OVC020CB
     FM290100 36008KT P6SM VCSH OVC040
     FM290300 VRB05KT P6SM OVC020
     FM291000 VRB04KT 5SM BR OVC012
     FM291600 10008KT P6SM BKN025=



000
FTUS45 KTFX 281721
TAFCTB
TAF
KCTB 281721Z 2818/2918 34018KT P6SM OVC040
      TEMPO 2818/2822 4SM SHRA OVC012
     FM290200 36006KT P6SM OVC030
     FM291600 15008KT P6SM SCT060=



000
FTUS45 KTFX 281721
TAFLWT
TAF
KLWT 281721Z 2818/2918 34010KT P6SM VCSH OVC045
     FM282000 34012KT P6SM -SHRA OVC035
      TEMPO 2820/2824 4SM TSRA OVC020CB
     FM290100 36008KT P6SM VCSH OVC040
     FM290300 VRB05KT P6SM OVC020
     FM291000 VRB04KT 5SM BR OVC012
     FM291600 10008KT P6SM BKN025=



000
FTUS45 KTFX 281721
TAFCTB
TAF
KCTB 281721Z 2818/2918 34018KT P6SM OVC040
      TEMPO 2818/2822 4SM SHRA OVC012
     FM290200 36006KT P6SM OVC030
     FM291600 15008KT P6SM SCT060=



000
FTUS45 KTFX 281721
TAFBZN
TAF
KBZN 281721Z 2818/2918 VRB04KT P6SM VCSH SCT015 OVC045
     FM281900 33005KT P6SM -SHRA SCT015 OVC045
      TEMPO 2819/2823 4SM SHRA OVC015
     FM282300 33007KT P6SM VCSH OVC045
      TEMPO 2823/2903 -SHRA BKN025
     FM291000 VRB05KT 5SM BR OVC015
     FM291400 VRB05KT P6SM SCT050=



000
FTUS45 KTFX 281721
TAFHLN
TAF
KHLN 281721Z 2818/2918 33008KT P6SM -SHRA SCT015 OVC050
      TEMPO 2819/2823 5SM SHRA OVC025
     FM282300 33010KT P6SM VCSH OVC045
      TEMPO 2823/2903 -SHRA
     FM290300 33006KT P6SM BKN060
     FM291000 VRB04KT 5SM BR OVC025
     FM291400 VRB05KT P6SM SCT040=



000
FTUS45 KTFX 281721
TAFGTF
TAF
KGTF 281721Z 2818/2918 35010KT P6SM VCSH OVC045
      TEMPO 2819/2823 5SM SHRA OVC025
     FM290200 36008KT P6SM VCSH OVC025
     FM291000 VRB04KT P6SM OVC015
     FM291600 VRB05KT P6SM BKN040=



000
FTUS45 KTFX 281721
TAFHVR
TAF
KHVR 281721Z 2818/2918 36010KT P6SM OVC070
      TEMPO 2818/2820 -SHRA BKN040
     FM290200 04007KT P6SM BKN040
     FM291600 09010KT P6SM SKC=



000
FTUS45 KTFX 281428 AAA
TAFGTF
TAF AMD
KGTF 281428Z 2814/2912 23007KT P6SM BKN080
      TEMPO 2816/2819 -SHRA BKN050
     FM281900 35011G19KT P6SM VCTS BKN050CB
      TEMPO 2820/2824 TSRA BKN035CB
     FM290100 36010KT P6SM -SHRA SCT020 OVC040
     FM290900 VRB06KT P6SM OVC050=



000
FTUS45 KTFX 281151 CCA
TAFLWT
TAF COR
KLWT 281151Z 2812/2912 27008KT P6SM BKN090
     FM281900 34009KT P6SM VCTS BKN050CB PROB30 2821/2901 TSRA
      BKN035CB
     FM290300 VRB05KT P6SM -SHRA SCT015 BKN030=



000
FTUS45 KTFX 281145 CCA
TAFHVR
TAF COR
KHVR 281145Z 2812/2912 VRB05KT P6SM BKN150
     FM281800 34014G20KT P6SM VCTS SCT040CB BKN080 PROB30 2821/2824
      VRB25G35KT 4SM TSRA BKN030CB
     FM290000 03011G17KT P6SM VCSH SCT030 OVC050
     FM290700 07008KT P6SM SCT040 OVC080=



000
FTUS45 KTFX 281141
TAFLWT
TAF
KLWT 281141Z 2812/2912 VRB06KT P6SM BKN070
     FM281700 32006KT P6SM -SHRA BKN050
     FM282000 34009KT P6SM VCTS BKN050CB
     FM290200 03007KT P6SM VCSH SCT030 BKN060=



000
FTUS45 KTFX 281141
TAFCTB
TAF
KCTB 281141Z 2812/2912 29005KT P6SM BKN090
     FM281700 36014G20KT P6SM VCTS BKN040CB
     FM290100 35011KT P6SM VCSH SCT015 OVC030=



000
FTUS45 KTFX 281141
TAFHVR
TAF
KHVR 281141Z 2812/2912 VRB05KT P6SM BKN100
     FM282100 35015KT P6SM VCTS SCT040CB BKN060 PROB30 2821/2824
      VRB25G35KT 4SM -TSRA BKN030CB
     FM290000 04008KT P6SM VCSH SCT050 OVC070=



000
FTUS45 KTFX 281141
TAFHLN
TAF
KHLN 281141Z 2812/2912 VRB04KT P6SM BKN070
     FM282000 31010KT P6SM VCTS BKN050CB PROB30 2821/2901 TSRA
      BKN035CB
     FM290300 28007KT P6SM -SHRA SCT020 OVC040=



000
FTUS45 KTFX 281141
TAFGTF
TAF
KGTF 281141Z 2812/2912 23007KT P6SM BKN080
     FM281900 35011G19KT P6SM VCTS BKN050CB
      TEMPO 2820/2824 TSRA BKN035CB
     FM290100 36010KT P6SM -SHRA SCT020 OVC040
     FM290900 VRB06KT P6SM OVC050=



000
FTUS45 KTFX 281141
TAFBZN
TAF
KBZN 281141Z 2812/2912 15005KT P6SM BKN050
     FM282000 29008KT P6SM VCTS BKN050CB PROB30 2822/2902 TSRA
      BKN035CB
     FM290400 16005KT P6SM -SHRA SCT025 OVC040=



000
FTUS45 KTFX 280520
TAFCTB
TAF
KCTB 280520Z 2806/2906 29005KT P6SM SCT060 BKN080
     FM281500 34012KT P6SM -SHRA BKN040
     FM282000 36014KT P6SM VCTS BKN040CB PROB30 2820/2824 VRB25G35KT
      3SM -TSRA BKN030CB
     FM290000 02012KT P6SM VCSH SCT020 BKN030=



000
FTUS45 KTFX 280520
TAFHVR
TAF
KHVR 280520Z 2806/2906 VRB05KT P6SM BKN100
     FM282100 35015KT P6SM VCTS SCT040CB BKN060 PROB30 2821/2824
      VRB25G35KT 4SM -TSRA BKN030CB
     FM290000 04008KT P6SM VCSH SCT050 OVC070=



000
FTUS45 KTFX 280520
TAFHLN
TAF
KHLN 280520Z 2806/2906 24005KT P6SM VCSH SCT050 BKN080
     FM280800 27006KT P6SM BKN090
     FM281800 30006KT P6SM VCTS BKN050CB PROB30 2820/2902 VRB25G35KT
      4SM -TSRA BKN030CB
     FM290200 28007KT P6SM VCSH SCT040 BKN070=



000
FTUS45 KTFX 280520
TAFGTF
TAF
KGTF 280520Z 2806/2906 24005KT P6SM SCT050 BKN080
     FM281500 25006KT P6SM -SHRA BKN060
     FM281800 VRB06KT P6SM VCTS BKN050CB PROB30 2820/2902 VRB25G35KT
      4SM -TSRA BKN030CB
     FM290200 28007KT P6SM VCSH SCT040 BKN070=



000
FTUS45 KTFX 280520
TAFLWT
TAF
KLWT 280520Z 2806/2906 VRB06KT P6SM BKN070
     FM281700 32006KT P6SM -SHRA BKN050
     FM282000 34009KT P6SM VCTS BKN050CB PROB30 2820/2901 VRB25G35KT
      3SM -TSRA BKN030CB
     FM290200 03007KT P6SM VCSH SCT030 BKN060=



000
FTUS45 KTFX 280520
TAFBZN
TAF
KBZN 280520Z 2806/2906 15005KT P6SM SCT050 BKN080
     FM281500 32006KT P6SM VCSH BKN060
     FM281800 VRB06KT P6SM VCTS BKN050CB PROB30 2820/2902 VRB25G35KT
      3SM -TSRA BKN030CB
     FM290200 16005KT P6SM BKN070=



000
FTUS45 KTFX 272337
TAFBZN
TAF
KBZN 272337Z 2800/2824 15010KT P6SM VCTS SCT040 BKN070CB
      TEMPO 2800/2802 5SM -TSRA BKN040CB
     FM280500 19005KT P6SM SCT050 BKN080
     FM281500 32006KT P6SM VCSH BKN060
     FM281800 VRB06KT P6SM VCTS BKN050CB PROB30 2820/2824 VRB25G35KT
      3SM -TSRA BKN030CB=



000
FTUS45 KTFX 272337
TAFHVR
TAF
KHVR 272337Z 2800/2824 35007KT P6SM VCTS SCT045CB BKN070
      TEMPO 2800/2803 -TSRA BKN045CB
     FM280300 VRB05KT P6SM BKN070
     FM282100 35015KT P6SM VCSH SCT040 BKN060=



000
FTUS45 KTFX 272337
TAFCTB
TAF
KCTB 272337Z 2800/2824 35007KT P6SM VCTS SCT040CB OVC060
      TEMPO 2800/2802 4SM -TSRA BKN030CB
     FM280200 29005KT P6SM BKN050
     FM281500 34012KT P6SM -SHRA BKN040
     FM282000 36014KT P6SM VCTS BKN040CB PROB30 2820/2824 VRB25G35KT
      3SM -TSRA BKN030CB=



000
FTUS45 KTFX 272337
TAFLWT
TAF
KLWT 272337Z 2800/2824 32008KT P6SM VCTS SCT040CB BKN060
      TEMPO 2800/2802 -TSRA BKN040CB
     FM280400 25006KT P6SM BKN070
     FM281500 32006KT P6SM -SHRA BKN050
     FM281800 VRB06KT P6SM VCTS BKN050CB PROB30 2820/2824 VRB25G35KT
      3SM -TSRA BKN030CB=



000
FTUS45 KTFX 272337
TAFGTF
TAF
KGTF 272337Z 2800/2824 27007KT P6SM VCTS SCT035CB SCT060
      TEMPO 2800/2802 -TSRA BKN050CB
     FM280200 24005KT P6SM SCT050 OVC080
     FM281500 25006KT P6SM -SHRA BKN060
     FM281800 VRB06KT P6SM VCTS BKN050CB PROB30 2820/2824 VRB25G35KT
      4SM -TSRA BKN030CB=



000
FTUS45 KTFX 272337
TAFHLN
TAF
KHLN 272337Z 2800/2824 10007KT P6SM VCTS BKN050CB
      TEMPO 2800/2802 6SM -TSRA BKN040CB
     FM280500 27005KT P6SM SCT050 BKN080
     FM281800 VRB06KT P6SM VCTS BKN050CB PROB30 2820/2824 VRB25G35KT
      4SM -TSRA BKN030CB=



000
FTUS45 KTFX 271753
TAFHVR
TAF
KHVR 271753Z 2718/2818 32007KT P6SM SCT050 BKN090
     FM272200 35007KT P6SM SCT045 BKN070
      TEMPO 2723/2803 -TSRA BKN045CB
     FM280300 VRB05KT P6SM BKN050=



000
FTUS45 KTFX 271753
TAFLWT
TAF
KLWT 271753Z 2718/2818 28008KT P6SM SCT025 OVC070
      TEMPO 2718/2722 TSRA BKN025CB
     FM272200 32008KT P6SM VCTS SCT040CB BKN060
      TEMPO 2722/2802 -TSRA BKN040CB
     FM280400 25006KT P6SM BKN070
     FM281500 32006KT P6SM -SHRA BKN050=



000
FTUS45 KTFX 271753
TAFBZN
TAF
KBZN 271753Z 2718/2818 VRB06KT P6SM SCT060 BKN090
     FM272100 29007KT P6SM VCTS SCT040 BKN070CB
      TEMPO 2722/2802 TSRA BKN040CB
     FM280500 19005KT P6SM SCT050 BKN080
     FM281500 32006KT P6SM VCSH BKN060=



000
FTUS45 KTFX 271753
TAFHLN
TAF
KHLN 271753Z 2718/2818 VRB05KT P6SM SCT030 BKN060
      TEMPO 2718/2721 5SM -SHRA BKN030
     FM272100 34006KT P6SM SCT025 BKN050
      TEMPO 2721/2801 6SM TSRA BKN040CB
     FM280500 27005KT P6SM SCT050 BKN080=



000
FTUS45 KTFX 271753
TAFGTF
TAF
KGTF 271753Z 2718/2818 24008KT P6SM SCT008 BKN070
      TEMPO 2718/2722 -SHRA BKN050
     FM272200 32007KT P6SM VCTS SCT050CB BKN070
      TEMPO 2722/2802 -TSRA BKN050CB
     FM280200 24005KT P6SM SCT050 OVC080
     FM281500 25006KT P6SM -SHRA BKN060=



000
FTUS45 KTFX 271753
TAFCTB
TAF
KCTB 271753Z 2718/2818 35007KT P6SM VCSH SCT030 BKN080
     FM272100 35007KT P6SM VCTS SCT030CB BKN070
      TEMPO 2722/2802 -TSRA BKN030CB
     FM280200 29005KT P6SM BKN050
     FM281500 34010KT P6SM -SHRA BKN040=



000
FTUS45 KTFX 271400 AAB
TAFLWT
TAF AMD
KLWT 271400Z 2714/2812 23004KT P6SM SCT002 BKN020
      TEMPO 2714/2716 4SM BR
     FM271600 31006KT P6SM SCT020 OVC050
      TEMPO 2721/2801 TSRA BKN020CB
     FM280400 27004KT P6SM SCT050 OVC080=



000
FTUS45 KTFX 271400 AAB
TAFLWT
TAF AMD
KLWT 271400Z 2714/2812 23004KT P6SM SCT002 BKN020
      TEMPO 2714/2716 4SM BR
     FM271600 31006KT P6SM SCT020 OVC050
      TEMPO 2721/2801 TSRA BKN020CB
     FM280400 27004KT P6SM SCT050 OVC080=



000
FTUS45 KTFX 271335 AAA
TAFLWT
TAF AMD
KLWT 271335Z 2714/2812 23004KT 1SM BR BKN002
      TEMPO 2714/2716 1/4SM FG
     FM271600 31006KT P6SM SCT020 OVC050
      TEMPO 2721/2801 TSRA BKN020CB
     FM280400 27004KT P6SM SCT050 OVC080=



000
FTUS45 KTFX 271335 AAA
TAFLWT
TAF AMD
KLWT 271335Z 2714/2812 23004KT 1SM BR BKN002
      TEMPO 2714/2716 1/4SM FG
     FM271600 31006KT P6SM SCT020 OVC050
      TEMPO 2721/2801 TSRA BKN020CB
     FM280400 27004KT P6SM SCT050 OVC080=



000
FTUS45 KTFX 271153 RRA
TAFHVR
TAF
KHVR 271153Z 2712/2812 20006KT P6SM BKN070 PROB30 2723/2803 TSRA
      BKN040CB
     FM280400 VRB06KT P6SM OVC050=



000
FTUS45 KTFX 271153 RRA
TAFGTF
TAF
KGTF 271153Z 2712/2812 25010KT P6SM SCT030 BKN070
      TEMPO 2712/2715 5SM -SHRA BR BKN030
     FM271700 25006KT P6SM SCT070 BKN120
      TEMPO 2722/2802 6SM TSRA BKN040CB
     FM280300 27004KT P6SM SCT050 OVC080=



000
FTUS45 KTFX 271153 RRA
TAFBZN
TAF
KBZN 271153Z 2712/2812 VRB04KT P6SM VCSH SCT050 BKN110
     FM271700 VRB06KT P6SM SCT030 BKN070
     FM272100 29006KT P6SM -SHRA SCT040 BKN070
      TEMPO 2722/2802 TSRA BKN040CB
     FM280500 19004KT P6SM SCT050 OVC080=



000
FTUS45 KTFX 271153 RRA
TAFCTB
TAF
KCTB 271153Z 2712/2812 33006KT P6SM SCT040 BKN090 PROB30 2721/2802
      TSRA BKN040CB
     FM280300 VRB03KT P6SM OVC050=



000
FTUS45 KTFX 271153 RRA
TAFHLN
TAF
KHLN 271153Z 2712/2812 VRB04KT P6SM -SHRA SCT020 BKN050
      TEMPO 2712/2714 4SM RA BR BKN020
     FM271700 VRB06KT P6SM SCT040 BKN080
      TEMPO 2721/2801 6SM TSRA BKN040CB
     FM280700 27004KT P6SM SCT050 OVC080=



000
FTUS45 KTFX 271153 RRA
TAFLWT
TAF
KLWT 271153Z 2712/2812 VRB04KT P6SM BKN002
     FM271500 31006KT P6SM SCT020 OVC050
      TEMPO 2721/2801 TSRA BKN020CB
     FM280400 27004KT P6SM SCT050 OVC080=



000
FTUS45 KTFX 270520
TAFLWT
TAF
KLWT 270520Z 2706/2806 VRB06KT P6SM BKN150
     FM271900 31006KT P6SM OVC050 PROB30 2720/2802 -TSRA BKN040CB=



000
FTUS45 KTFX 270520
TAFBZN
TAF
KBZN 270520Z 2706/2806 12006KT P6SM SCT030 BKN060
      TEMPO 2710/2712 -SHRA BKN030
     FM271200 VRB06KT 6SM -SHRA BR OVC015
     FM271700 VRB06KT P6SM SCT030 BKN070
     FM272000 29006KT P6SM SCT090 SCT180 PROB30 2721/2802 -TSRA
      BKN060CB=



000
FTUS45 KTFX 270520
TAFHVR
TAF
KHVR 270520Z 2706/2806 20006KT P6SM BKN120
     FM272000 27008KT P6SM SCT070 BKN100 PROB30 2720/2802 -TSRA
      BKN060CB
     FM280200 VRB06KT P6SM -SHRA OVC060=



000
FTUS45 KTFX 270520
TAFGTF
TAF
KGTF 270520Z 2706/2806 06006KT P6SM SCT150
     FM270700 24006KT P6SM BKN070
     FM271600 25006KT P6SM SCT070 BKN120 PROB30 2721/2802 -TSRA
      BKN070CB=



000
FTUS45 KTFX 270520
TAFCTB
TAF
KCTB 270520Z 2706/2806 23006KT P6SM SCT040 SCT150
     FM271000 33006KT P6SM BKN120 PROB30 2721/2802 -TSRA BKN060CB=



000
FTUS45 KTFX 270520
TAFHLN
TAF
KHLN 270520Z 2706/2806 23006KT P6SM SCT060 BKN150
      TEMPO 2706/2710 -SHRA BKN040
     FM271000 VRB06KT P6SM SCT040 BKN060
      TEMPO 2710/2714 -SHRA BKN030
     FM271600 VRB06KT P6SM SCT060 BKN100 PROB30 2721/2802 6SM -TSRA
      BKN060CB=



000
FTUS45 KTFX 270244 AAA
TAFHLN
TAF AMD
KHLN 270244Z 2703/2724 35008KT P6SM BKN100
      TEMPO 2703/2706 VRB15G35KT -TSRA BKN050CB
     FM270600 27006KT P6SM SCT070 BKN100
      TEMPO 2709/2713 -SHRA BKN050
     FM271500 VRB06KT P6SM SCT090 BKN150 PROB30 2721/2724 -TSRA
      BKN060CB=



000
FTUS45 KTFX 270244 AAA
TAFHLN
TAF AMD
KHLN 270244Z 2703/2724 35008KT P6SM BKN100
      TEMPO 2703/2706 VRB15G35KT -TSRA BKN050CB
     FM270600 27006KT P6SM SCT070 BKN100
      TEMPO 2709/2713 -SHRA BKN050
     FM271500 VRB06KT P6SM SCT090 BKN150 PROB30 2721/2724 -TSRA
      BKN060CB=



000
FTUS45 KTFX 262333
TAFBZN
TAF
KBZN 262333Z 2700/2724 VRB06KT P6SM SCT080 BKN150
     FM270900 VRB06KT P6SM SCT040 BKN070
      TEMPO 2710/2712 5SM -SHRA BR OVC035
     FM271200 VRB06KT 5SM -SHRA OVC030
     FM271700 VRB06KT P6SM SCT045 BKN090
     FM272000 29006KT P6SM SCT090 SCT180 PROB30 2721/2724 -TSRA
      BKN060CB=



000
FTUS45 KTFX 262333
TAFCTB
TAF
KCTB 262333Z 2700/2724 VRB06KT P6SM SCT100 SCT180
     FM270900 32010KT P6SM BKN120
     FM271800 35006KT P6SM SCT100 BKN150
      TEMPO 2720/2724 -TSRA BKN070CB=



000
FTUS45 KTFX 262333
TAFHLN
TAF
KHLN 262333Z 2700/2724 04006KT P6SM SCT100 SCT150
     FM270600 27006KT P6SM SCT070 BKN100 PROB30 2709/2713 -SHRA
      BKN050
     FM271500 VRB06KT P6SM SCT090 BKN150 PROB30 2721/2724 -TSRA
      BKN060CB=



000
FTUS45 KTFX 262333
TAFGTF
TAF
KGTF 262333Z 2700/2724 06007KT P6SM SCT040 SCT120
     FM270700 24006KT P6SM VCSH BKN070
     FM271600 25006KT P6SM SCT070 BKN120 PROB30 2721/2724 -TSRA
      BKN070CB=



000
FTUS45 KTFX 262333
TAFHVR
TAF
KHVR 262333Z 2700/2724 24010KT P6SM BKN100
     FM270200 22006KT P6SM SCT100 BKN180
     FM271200 27006KT P6SM BKN120 PROB30 2715/2720 -SHRA BKN070
     FM272000 27008KT P6SM SCT070 BKN100
      TEMPO 2720/2724 -TSRA BKN060CB=



000
FTUS45 KTFX 262333
TAFLWT
TAF
KLWT 262333Z 2700/2724 VRB06KT P6SM SCT025 BKN150
     FM270800 VRB06KT P6SM SCT025 OVC040 PROB30 2709/2712 6SM -SHRA
      BR BKN025
     FM271900 31006KT P6SM OVC050
      TEMPO 2720/2724 -TSRA BKN040CB=



000
FTUS45 KTFX 261749
TAFGTF
TAF
KGTF 261749Z 2618/2718 VRB05KT P6SM SCT050 BKN090
      TEMPO 2619/2623 -SHRA BKN050
     FM262300 VRB05KT P6SM VCSH SCT045 BKN070 PROB30 2703/2708 -SHRA
      BKN045
     FM270800 VRB05KT P6SM VCSH BKN060=



000
FTUS45 KTFX 261749
TAFBZN
TAF
KBZN 261749Z 2618/2718 VRB05KT P6SM SCT060 BKN090
     FM262100 28006KT P6SM VCSH SCT050 BKN080
     FM270200 15005KT P6SM VCSH SCT040 BKN080 PROB30 2703/2708 -SHRA
      BKN040=



000
FTUS45 KTFX 261749
TAFHLN
TAF
KHLN 261749Z 2618/2718 VRB05KT P6SM SCT060 BKN120
     FM262200 28006KT P6SM VCSH SCT050 BKN090 PROB30 2703/2708 -SHRA
      BKN050
     FM271200 28005KT P6SM VCSH SCT040 BKN070=



000
FTUS45 KTFX 261749
TAFGTF
TAF
KGTF 261749Z 2618/2718 VRB05KT P6SM SCT050 BKN090
      TEMPO 2619/2623 -SHRA BKN050
     FM262300 VRB05KT P6SM VCSH SCT045 BKN070 PROB30 2703/2708 -SHRA
      BKN045
     FM270800 VRB05KT P6SM VCSH BKN060=



000
FTUS45 KTFX 261749
TAFHLN
TAF
KHLN 261749Z 2618/2718 VRB05KT P6SM SCT060 BKN120
     FM262200 28006KT P6SM VCSH SCT050 BKN090 PROB30 2703/2708 -SHRA
      BKN050
     FM271200 28005KT P6SM VCSH SCT040 BKN070=



000
FTUS45 KTFX 261749
TAFBZN
TAF
KBZN 261749Z 2618/2718 VRB05KT P6SM SCT060 BKN090
     FM262100 28006KT P6SM VCSH SCT050 BKN080
     FM270200 15005KT P6SM VCSH SCT040 BKN080 PROB30 2703/2708 -SHRA
      BKN040=



000
FTUS45 KTFX 261749
TAFCTB
TAF
KCTB 261749Z 2618/2718 01008KT P6SM -SHRA SCT010 BKN030
      TEMPO 2618/2620 5SM -SHRA BKN010
     FM262000 02008KT P6SM SCT020 BKN050
      TEMPO 2620/2624 -SHRA BKN020
     FM270000 03007KT P6SM VCSH SCT025 BKN050 PROB30 2703/2708 -SHRA
      BKN025
     FM270800 32006KT P6SM VCSH BKN060=



000
FTUS45 KTFX 261749
TAFLWT
TAF
KLWT 261749Z 2618/2718 VRB05KT P6SM VCTS SCT020 BKN030CB
      TEMPO 2618/2622 VRB15G35KT 5SM TSRA BKN020CB
     FM262200 VRB05KT P6SM -SHRA SCT030 BKN045
     FM270200 16006KT P6SM VCSH SCT020 BKN050 PROB30 2703/2708 -SHRA
      BKN020=



000
FTUS45 KTFX 261749
TAFHVR
TAF
KHVR 261749Z 2618/2718 24008KT P6SM VCSH SCT060 BKN100
     FM262300 VRB05KT P6SM SCT050 BKN090 PROB30 2703/2708 -SHRA
      BKN050
     FM270800 25006KT P6SM VCSH BKN060=



000
FTUS45 KTFX 261120
TAFHLN
TAF
KHLN 261120Z 2612/2712 26006KT 6SM -RA BR SCT030 OVC050
     FM261500 30006KT P6SM SCT060 BKN100
     FM270300 14006KT P6SM VCSH SCT050 BKN100=



000
FTUS45 KTFX 261120
TAFGTF
TAF
KGTF 261120Z 2612/2712 20008KT P6SM -SHRA SCT040 BKN070
     FM261600 27006KT P6SM SCT060 BKN100=



000
FTUS45 KTFX 261120
TAFHVR
TAF
KHVR 261120Z 2612/2712 22008KT P6SM SCT100 BKN150
     FM261800 18006KT P6SM SCT070 BKN100
     FM270800 23006KT P6SM VCSH SCT030 OVC060=



000
FTUS45 KTFX 261120
TAFLWT
TAF
KLWT 261120Z 2612/2712 VRB05KT P6SM SCT050 BKN100
     FM261700 VRB06KT P6SM VCSH SCT025 OVC050
      TEMPO 2621/2701 VRB15G35KT 5SM TSRA BKN020CB OVC040
     FM270200 11006KT P6SM VCSH SCT015 OVC040=



000
FTUS45 KTFX 261120
TAFCTB
TAF
KCTB 261120Z 2612/2712 29008KT P6SM -SHRA SCT025 OVC060
     FM261700 35007KT P6SM SCT060 BKN100=



000
FTUS45 KTFX 261120
TAFBZN
TAF
KBZN 261120Z 2612/2712 26006KT P6SM SCT025 OVC045
      TEMPO 2612/2615 6SM -SHRA BR BKN025
     FM261700 25006KT P6SM SCT045 BKN100
     FM270500 20006KT P6SM VCSH SCT050 BKN100=



000
FTUS45 KTFX 260520
TAFGTF
TAF
KGTF 260520Z 2606/2706 23008KT P6SM VCSH SCT030 BKN060
      TEMPO 2606/2607 -SHRA BKN040
     FM260700 20008KT P6SM -SHRA OVC040
     FM261600 23006KT P6SM SCT060 BKN100
     FM261900 05008KT P6SM SCT100 SCT180=



000
FTUS45 KTFX 260520
TAFCTB
TAF
KCTB 260520Z 2606/2706 29006KT P6SM BKN050
     FM260900 30008KT P6SM -RA SCT025 OVC050
     FM261400 30006KT P6SM VCSH BKN035
     FM261800 35007KT P6SM SCT060 BKN100
     FM270000 02006KT P6SM OVC080=



000
FTUS45 KTFX 260520
TAFHVR
TAF
KHVR 260520Z 2606/2706 09008KT P6SM BKN100
     FM261800 18006KT P6SM SCT070 BKN100
      TEMPO 2618/2622 VRB20G40KT -TSRA BKN050CB
     FM270100 20006KT P6SM VCSH OVC100=



000
FTUS45 KTFX 260520
TAFBZN
TAF
KBZN 260520Z 2606/2706 26006KT P6SM SCT025 OVC045
      TEMPO 2609/2613 6SM -SHRA BR BKN025
     FM261500 25006KT P6SM SCT045 BKN100
     FM261800 30006KT P6SM SCT100
     FM270300 14006KT P6SM BKN120=



000
FTUS45 KTFX 260520
TAFHLN
TAF
KHLN 260520Z 2606/2706 30008KT P6SM VCSH SCT035 OVC050
      TEMPO 2606/2608 5SM -SHRA OVC030
     FM260800 26006KT 6SM -RA BR OVC035
     FM261500 30006KT P6SM SCT060 BKN100
     FM261900 33006KT P6SM SCT100 SCT180
     FM270300 14006KT P6SM BKN120=



000
FTUS45 KTFX 260520
TAFHLN
TAF
KHLN 260520Z 2606/2706 30008KT P6SM VCSH SCT035 OVC050
      TEMPO 2606/2608 5SM -SHRA OVC030
     FM260800 26006KT 6SM -RA BR OVC035
     FM261500 30006KT P6SM SCT060 BKN100
     FM261900 33006KT P6SM SCT100 SCT180
     FM270300 14006KT P6SM BKN120=



000
FTUS45 KTFX 260520
TAFCTB
TAF
KCTB 260520Z 2606/2706 29006KT P6SM BKN050
     FM260900 30008KT P6SM -RA SCT025 OVC050
     FM261400 30006KT P6SM VCSH BKN035
     FM261800 35007KT P6SM SCT060 BKN100
     FM270000 02006KT P6SM OVC080=



000
FTUS45 KTFX 260520
TAFLWT
TAF
KLWT 260520Z 2606/2706 12006KT P6SM SCT070 BKN150
     FM261500 VRB06KT P6SM VCSH OVC045
      TEMPO 2616/2620 VRB15G35KT 6SM -TSRA BKN030CB OVC050
     FM262200 36006KT P6SM BKN070
     FM270100 06006KT P6SM SCT070 SCT180=



000
FTUS45 KTFX 260520
TAFGTF
TAF
KGTF 260520Z 2606/2706 23008KT P6SM VCSH SCT030 BKN060
      TEMPO 2606/2607 -SHRA BKN040
     FM260700 20008KT P6SM -SHRA OVC040
     FM261600 23006KT P6SM SCT060 BKN100
     FM261900 05008KT P6SM SCT100 SCT180=



000
FTUS45 KTFX 260520
TAFHVR
TAF
KHVR 260520Z 2606/2706 09008KT P6SM BKN100
     FM261800 18006KT P6SM SCT070 BKN100
      TEMPO 2618/2622 VRB20G40KT -TSRA BKN050CB
     FM270100 20006KT P6SM VCSH OVC100=



000
FTUS45 KTFX 260520
TAFBZN
TAF
KBZN 260520Z 2606/2706 26006KT P6SM SCT025 OVC045
      TEMPO 2609/2613 6SM -SHRA BR BKN025
     FM261500 25006KT P6SM SCT045 BKN100
     FM261800 30006KT P6SM SCT100
     FM270300 14006KT P6SM BKN120=



000
FTUS45 KTFX 260520
TAFLWT
TAF
KLWT 260520Z 2606/2706 12006KT P6SM SCT070 BKN150
     FM261500 VRB06KT P6SM VCSH OVC045
      TEMPO 2616/2620 VRB15G35KT 6SM -TSRA BKN030CB OVC050
     FM262200 36006KT P6SM BKN070
     FM270100 06006KT P6SM SCT070 SCT180=



000
FTUS45 KTFX 260336 AAB
TAFGTF
TAF AMD
KGTF 260336Z 2604/2624 26010G20KT P6SM VCSH BKN060
      TEMPO 2604/2607 VRB20G40KT -TSRA BKN040CB
     FM260700 20008KT P6SM -SHRA OVC040
     FM261600 23006KT P6SM SCT060 BKN100
     FM261900 05008KT P6SM SCT100 SCT180=



000
FTUS45 KTFX 260319 AAB
TAFHLN
TAF AMD
KHLN 260319Z 2603/2624 27006KT P6SM VCSH SCT070 BKN150
      TEMPO 2603/2605 6SM -SHRA OVC035
     FM260500 26006KT P6SM VCSH SCT035 OVC050
      TEMPO 2605/2609 5SM -SHRA OVC030
     FM261600 30006KT P6SM SCT060 BKN100
     FM261900 33006KT P6SM SCT100 SCT180=



000
FTUS45 KTFX 260309 AAA
TAFBZN
TAF AMD
KBZN 260309Z 2603/2624 26008KT P6SM SCT070 BKN150
      TEMPO 2603/2605 VRB15G35KT 5SM -TSRA OVC035CB
     FM260800 19006KT P6SM SCT025 OVC045
      TEMPO 2609/2613 6SM -SHRA BR BKN025
     FM261500 25006KT P6SM SCT045 BKN100
     FM261800 30006KT P6SM SCT100=



000
FTUS45 KTFX 260309 AAA
TAFBZN
TAF AMD
KBZN 260309Z 2603/2624 26008KT P6SM SCT070 BKN150
      TEMPO 2603/2605 VRB15G35KT 5SM -TSRA OVC035CB
     FM260800 19006KT P6SM SCT025 OVC045
      TEMPO 2609/2613 6SM -SHRA BR BKN025
     FM261500 25006KT P6SM SCT045 BKN100
     FM261800 30006KT P6SM SCT100=



000
FTUS45 KTFX 260155 AAA
TAFGTF
TAF AMD
KGTF 260155Z 2602/2624 08006KT P6SM SCT070 SCT180
      TEMPO 2602/2604 -TSRA BKN040CB
     FM260600 20008KT P6SM VCSH SCT030 BKN060
      TEMPO 2609/2613 -SHRA BKN030
     FM261600 23006KT P6SM SCT060 BKN100
     FM261900 05008KT P6SM SCT100 SCT180=



000
FTUS45 KTFX 260151 AAA
TAFHLN
TAF AMD
KHLN 260151Z 2602/2624 24006KT P6SM VCSH SCT060 BKN150
     FM260400 26006KT P6SM VCSH SCT035 OVC050
      TEMPO 2605/2609 5SM -SHRA OVC030
     FM261600 30006KT P6SM SCT060 BKN100
     FM261900 33006KT P6SM SCT100 SCT180=



000
FTUS45 KTFX 260057 AAA
TAFCTB
TAF AMD
KCTB 260057Z 2601/2624 26015KT P6SM BKN080
      TEMPO 2601/2602 VRB15G35KT -TSRA BKN050CB
     FM260200 23010KT P6SM SCT050 BKN080
     FM260900 30008KT P6SM -RA SCT025 OVC050
     FM261400 30006KT P6SM VCSH BKN035
     FM261800 35007KT P6SM SCT060 BKN100=



000
FTUS45 KTFX 260057 AAA
TAFCTB
TAF AMD
KCTB 260057Z 2601/2624 26015KT P6SM BKN080
      TEMPO 2601/2602 VRB15G35KT -TSRA BKN050CB
     FM260200 23010KT P6SM SCT050 BKN080
     FM260900 30008KT P6SM -RA SCT025 OVC050
     FM261400 30006KT P6SM VCSH BKN035
     FM261800 35007KT P6SM SCT060 BKN100=



    US Dept of Commerce
    National Oceanic and Atmospheric Administration
    National Weather Service
    1325 East West Highway
    Silver Spring, MD 20910
    Page Author: NWS Internet Services Team
Disclaimer
Information Quality
Credits
Glossary
Privacy Policy
Freedom of Information Act (FOIA)
About Us
Career Opportunities